createdAt,value
2023-05-13T00:01:57.641Z,15.60
2023-05-13T00:04:00.537Z,15.70
2023-05-13T00:06:03.363Z,15.60
2023-05-13T00:08:07.132Z,15.60
2023-05-13T00:10:11.791Z,15.50
2023-05-13T00:12:14.583Z,15.50
2023-05-13T00:14:17.405Z,15.50
2023-05-13T00:16:24.188Z,15.40
2023-05-13T00:18:27.273Z,15.10
2023-05-13T00:20:30.200Z,15.10
2023-05-13T00:22:33.016Z,15.20
2023-05-13T00:24:36.207Z,15.20
2023-05-13T00:26:39.039Z,15.20
2023-05-13T00:28:41.817Z,15.10
2023-05-13T00:30:45.714Z,15.10
2023-05-13T00:32:50.056Z,15.10
2023-05-13T00:34:52.895Z,15.10
2023-05-13T00:36:55.725Z,15.00
2023-05-13T00:38:58.703Z,15.10
2023-05-13T00:41:01.597Z,15.10
2023-05-13T00:43:04.395Z,15.00
2023-05-13T00:45:08.188Z,14.80
2023-05-13T00:47:12.521Z,14.70
2023-05-13T00:49:16.998Z,14.70
2023-05-13T00:51:19.864Z,14.70
2023-05-13T00:53:22.979Z,14.70
2023-05-13T00:55:26.662Z,14.60
2023-05-13T00:57:29.725Z,14.50
2023-05-13T00:59:32.930Z,14.50
2023-05-13T01:01:44.914Z,14.60
2023-05-13T01:04:10.546Z,14.60
2023-05-13T01:06:18.811Z,14.60
2023-05-13T01:08:30.278Z,14.60
2023-05-13T01:10:39.193Z,14.50
2023-05-13T01:12:44.454Z,14.50
2023-05-13T01:15:06.805Z,14.40
2023-05-13T01:17:15.975Z,14.40
2023-05-13T01:19:28.808Z,14.30
2023-05-13T01:21:36.902Z,14.30
2023-05-13T01:23:39.700Z,14.20
2023-05-13T01:25:42.728Z,14.30
2023-05-13T01:27:45.848Z,14.30
2023-05-13T01:29:49.593Z,14.20
2023-05-13T01:31:54.680Z,14.30
2023-05-13T01:33:58.514Z,14.30
2023-05-13T01:36:02.649Z,14.30
2023-05-13T01:38:07.429Z,14.40
2023-05-13T01:40:24.217Z,14.30
2023-05-13T01:42:35.401Z,14.30
2023-05-13T01:44:38.350Z,14.20
2023-05-13T01:46:41.304Z,14.20
2023-05-13T01:48:44.135Z,14.20
2023-05-13T01:50:47.356Z,14.10
2023-05-13T01:52:50.147Z,14.00
2023-05-13T01:54:54.548Z,13.90
2023-05-13T01:56:57.562Z,13.90
2023-05-13T01:59:00.973Z,13.80
2023-05-13T02:01:04.603Z,13.70
2023-05-13T02:03:07.508Z,13.80
2023-05-13T02:05:10.706Z,13.80
2023-05-13T02:07:13.534Z,13.80
2023-05-13T02:09:16.390Z,13.80
2023-05-13T02:11:20.558Z,13.80
2023-05-13T02:13:23.360Z,13.70
2023-05-13T02:15:26.128Z,13.70
2023-05-13T02:17:29.014Z,13.70
2023-05-13T02:19:31.865Z,13.70
2023-05-13T02:21:34.678Z,13.70
2023-05-13T02:23:37.964Z,13.60
2023-05-13T02:25:40.751Z,13.60
2023-05-13T02:27:44.906Z,13.60
2023-05-13T02:29:48.048Z,13.50
2023-05-13T02:31:51.174Z,13.40
2023-05-13T02:33:54.423Z,13.40
2023-05-13T02:35:57.256Z,13.20
2023-05-13T02:38:00.168Z,13.20
2023-05-13T02:40:03.672Z,13.20
2023-05-13T02:42:07.128Z,13.20
2023-05-13T02:44:11.312Z,13.20
2023-05-13T02:46:14.131Z,13.20
2023-05-13T02:48:17.435Z,13.20
2023-05-13T02:50:21.358Z,13.20
2023-05-13T02:52:24.445Z,13.20
2023-05-13T02:54:27.265Z,13.20
2023-05-13T02:56:30.058Z,13.20
2023-05-13T02:58:32.937Z,13.10
2023-05-13T03:00:37.172Z,13.00
2023-05-13T03:02:40.078Z,13.00
2023-05-13T03:04:43.043Z,13.00
2023-05-13T03:06:45.884Z,13.00
2023-05-13T03:08:48.708Z,13.00
2023-05-13T03:10:52.392Z,12.90
2023-05-13T03:12:55.486Z,12.80
2023-05-13T03:14:59.254Z,12.80
2023-05-13T03:17:03.556Z,12.90
2023-05-13T03:19:06.404Z,12.90
2023-05-13T03:21:09.284Z,12.90
2023-05-13T03:23:12.088Z,12.80
2023-05-13T03:25:14.994Z,12.90
2023-05-13T03:27:17.899Z,12.80
2023-05-13T03:29:20.721Z,12.90
2023-05-13T03:31:23.648Z,12.80
2023-05-13T03:33:29.781Z,12.90
2023-05-13T03:35:32.644Z,12.90
2023-05-13T03:37:35.563Z,12.90
2023-05-13T03:39:38.386Z,12.90
2023-05-13T03:41:41.314Z,13.00
2023-05-13T03:43:44.513Z,13.00
2023-05-13T03:45:48.505Z,12.90
2023-05-13T03:47:51.425Z,13.00
2023-05-13T03:49:55.550Z,13.00
2023-05-13T03:51:58.354Z,12.90
2023-05-13T03:54:01.240Z,13.00
2023-05-13T03:56:04.242Z,13.00
2023-05-13T03:58:13.496Z,12.90
2023-05-13T04:00:16.801Z,12.90
2023-05-13T04:02:21.800Z,12.90
2023-05-13T04:04:24.726Z,12.80
2023-05-13T04:06:28.908Z,12.90
2023-05-13T04:08:31.668Z,13.00
2023-05-13T04:10:34.510Z,12.90
2023-05-13T04:12:37.597Z,12.80
2023-05-13T04:14:40.497Z,12.90
2023-05-13T04:16:43.434Z,12.90
2023-05-13T04:18:46.220Z,12.90
2023-05-13T04:20:49.088Z,13.00
2023-05-13T04:22:53.566Z,13.10
2023-05-13T04:24:57.194Z,13.10
2023-05-13T04:27:01.405Z,13.10
2023-05-13T04:29:04.831Z,13.00
2023-05-13T04:31:07.756Z,13.00
2023-05-13T04:33:10.676Z,13.00
2023-05-13T04:35:13.556Z,13.10
2023-05-13T04:37:16.548Z,13.00
2023-05-13T04:39:20.749Z,13.10
2023-05-13T04:41:23.589Z,13.10
2023-05-13T04:43:26.552Z,13.20
2023-05-13T04:45:30.485Z,13.30
2023-05-13T04:47:35.253Z,13.50
2023-05-13T04:49:38.161Z,13.50
2023-05-13T04:51:41.552Z,13.60
2023-05-13T04:53:44.689Z,13.80
2023-05-13T04:55:50.113Z,14.10
2023-05-13T04:57:52.909Z,14.30
2023-05-13T04:59:56.590Z,14.50
2023-05-13T05:01:59.592Z,14.30
2023-05-13T05:04:02.623Z,14.40
2023-05-13T05:06:05.898Z,14.50
2023-05-13T05:08:08.656Z,14.70
2023-05-13T05:10:11.950Z,14.90
2023-05-13T05:12:16.217Z,15.10
2023-05-13T05:14:19.124Z,15.30
2023-05-13T05:16:22.067Z,15.50
2023-05-13T05:18:25.114Z,15.60
2023-05-13T05:20:28.266Z,15.90
2023-05-13T05:22:31.186Z,16.20
2023-05-13T05:24:34.876Z,16.40
2023-05-13T05:26:38.015Z,16.60
2023-05-13T05:28:43.505Z,16.80
2023-05-13T05:30:46.765Z,16.90
2023-05-13T05:32:49.787Z,17.00
2023-05-13T05:34:52.704Z,16.90
2023-05-13T05:36:56.101Z,16.90
2023-05-13T05:38:58.996Z,16.90
2023-05-13T05:41:01.899Z,17.00
2023-05-13T05:43:04.741Z,17.20
2023-05-13T05:45:10.037Z,17.20
2023-05-13T05:47:12.832Z,17.20
2023-05-13T05:49:15.687Z,17.30
2023-05-13T05:51:18.496Z,17.40
2023-05-13T05:53:21.319Z,17.40
2023-05-13T05:55:24.152Z,17.50
2023-05-13T05:57:27.123Z,17.40
2023-05-13T05:59:30.332Z,17.40
2023-05-13T06:01:36.745Z,17.30
2023-05-13T06:03:39.764Z,17.40
2023-05-13T06:05:43.208Z,17.50
2023-05-13T06:07:46.062Z,17.60
2023-05-13T06:09:49.008Z,17.70
2023-05-13T06:11:51.850Z,17.80
2023-05-13T06:13:54.903Z,17.90
2023-05-13T06:15:57.886Z,18.10
2023-05-13T06:18:05.559Z,18.20
2023-05-13T06:20:09.080Z,18.40
2023-05-13T06:22:12.215Z,18.60
2023-05-13T06:24:15.205Z,18.60
2023-05-13T06:26:17.986Z,18.60
2023-05-13T06:28:20.848Z,18.80
2023-05-13T06:30:23.881Z,19.00
2023-05-13T06:32:26.840Z,19.10
2023-05-13T06:34:31.032Z,19.20
2023-05-13T06:36:34.047Z,19.30
2023-05-13T06:38:36.868Z,19.40
2023-05-13T06:40:39.753Z,19.60
2023-05-13T06:42:42.554Z,19.80
2023-05-13T06:44:45.577Z,19.90
2023-05-13T06:46:48.410Z,20.00
2023-05-13T06:48:52.551Z,20.00
2023-05-13T06:50:56.722Z,20.10
2023-05-13T06:52:59.672Z,20.20
2023-05-13T06:55:02.835Z,20.30
2023-05-13T06:57:07.427Z,20.50
2023-05-13T06:59:10.397Z,20.70
2023-05-13T07:01:13.529Z,20.80
2023-05-13T07:03:16.428Z,20.90
2023-05-13T07:05:19.299Z,21.10
2023-05-13T07:07:23.597Z,21.20
2023-05-13T07:09:27.308Z,21.30
2023-05-13T07:11:30.300Z,21.30
2023-05-13T07:13:34.789Z,21.40
2023-05-13T07:15:37.835Z,21.40
2023-05-13T07:17:41.049Z,21.30
2023-05-13T07:19:44.086Z,21.50
2023-05-13T07:21:46.912Z,21.70
2023-05-13T07:23:51.262Z,21.80
2023-05-13T07:25:54.123Z,21.90
2023-05-13T07:27:56.955Z,22.10
2023-05-13T07:29:59.795Z,22.20
2023-05-13T07:32:05.497Z,22.30
2023-05-13T07:34:08.322Z,22.50
2023-05-13T07:36:11.455Z,22.50
2023-05-13T07:38:14.528Z,22.40
2023-05-13T07:40:22.263Z,22.60
2023-05-13T07:42:25.950Z,22.70
2023-05-13T07:44:28.776Z,22.70
2023-05-13T07:46:32.108Z,22.90
2023-05-13T07:48:34.993Z,22.90
2023-05-13T07:50:37.765Z,23.10
2023-05-13T07:52:40.578Z,23.20
2023-05-13T07:54:43.450Z,23.30
2023-05-13T07:56:48.086Z,23.40
2023-05-13T07:58:50.935Z,23.40
2023-05-13T08:00:53.943Z,23.60
2023-05-13T08:02:57.117Z,23.70
2023-05-13T08:04:59.978Z,23.70
2023-05-13T08:07:03.142Z,23.60
2023-05-13T08:09:06.554Z,23.70
2023-05-13T08:11:09.372Z,23.70
2023-05-13T08:13:13.526Z,23.70
2023-05-13T08:15:17.061Z,23.80
2023-05-13T08:17:20.031Z,23.80
2023-05-13T08:19:22.899Z,23.90
2023-05-13T08:21:25.707Z,24.00
2023-05-13T08:23:43.312Z,24.10
2023-05-13T08:25:47.702Z,24.00
2023-05-13T08:27:50.596Z,24.00
2023-05-13T08:29:54.836Z,24.10
2023-05-13T08:31:57.702Z,24.20
2023-05-13T08:34:00.595Z,24.10
2023-05-13T08:36:04.268Z,24.00
2023-05-13T08:38:06.999Z,24.10
2023-05-13T08:40:13.405Z,24.00
2023-05-13T08:42:19.376Z,24.00
2023-05-13T08:44:28.687Z,23.90
2023-05-13T08:46:34.938Z,23.90
2023-05-13T08:48:39.260Z,24.00
2023-05-13T08:50:42.755Z,24.00
2023-05-13T08:52:46.707Z,24.10
2023-05-13T08:54:50.533Z,24.10
2023-05-13T08:56:53.372Z,24.20
2023-05-13T08:58:56.164Z,24.30
2023-05-13T09:00:59.501Z,24.30
2023-05-13T09:03:03.933Z,24.30
2023-05-13T09:05:08.687Z,24.40
2023-05-13T09:07:11.969Z,24.50
2023-05-13T09:09:15.158Z,24.40
2023-05-13T09:11:18.179Z,24.40
2023-05-13T09:13:20.949Z,24.40
2023-05-13T09:15:25.215Z,24.50
2023-05-13T09:17:31.246Z,24.50
2023-05-13T09:19:36.980Z,24.60
2023-05-13T09:21:44.873Z,24.60
2023-05-13T09:23:47.767Z,24.60
2023-05-13T09:25:50.611Z,24.70
2023-05-13T09:27:57.655Z,24.80
2023-05-13T09:30:01.465Z,24.80
2023-05-13T09:32:10.608Z,25.00
2023-05-13T09:34:13.623Z,25.10
2023-05-13T09:36:18.340Z,25.20
2023-05-13T09:38:23.369Z,25.30
2023-05-13T09:40:26.257Z,25.30
2023-05-13T09:42:29.163Z,25.30
2023-05-13T09:44:32.070Z,25.30
2023-05-13T09:46:35.170Z,25.30
2023-05-13T09:48:44.406Z,25.40
2023-05-13T09:50:49.767Z,25.30
2023-05-13T09:52:54.051Z,25.40
2023-05-13T09:54:57.891Z,25.40
2023-05-13T09:57:01.361Z,25.40
2023-05-13T09:59:04.996Z,25.60
2023-05-13T10:01:08.262Z,25.80
2023-05-13T10:03:11.849Z,25.80
2023-05-13T10:05:14.831Z,25.90
2023-05-13T10:07:17.667Z,25.80
2023-05-13T10:09:22.297Z,25.90
2023-05-13T10:11:25.633Z,25.90
2023-05-13T10:13:31.948Z,25.90
2023-05-13T10:15:35.837Z,25.90
2023-05-13T10:17:39.394Z,25.90
2023-05-13T10:19:42.671Z,26.20
2023-05-13T10:21:45.844Z,26.40
2023-05-13T10:23:49.260Z,26.50
2023-05-13T10:25:55.187Z,26.40
2023-05-13T10:27:59.078Z,26.40
2023-05-13T10:30:04.990Z,26.20
2023-05-13T10:32:10.258Z,26.40
2023-05-13T10:34:14.047Z,26.50
2023-05-13T10:36:49.577Z,26.70
2023-05-13T10:39:11.377Z,26.70
2023-05-13T10:41:32.159Z,26.50
2023-05-13T10:43:36.094Z,26.30
2023-05-13T10:45:38.938Z,26.20
2023-05-13T10:47:41.810Z,26.10
2023-05-13T10:49:51.984Z,26.10
2023-05-13T10:52:04.473Z,26.10
2023-05-13T10:54:20.162Z,26.00
2023-05-13T10:56:25.790Z,25.90
2023-05-13T10:58:32.702Z,26.00
2023-05-13T11:00:37.324Z,25.80
2023-05-13T11:02:40.166Z,25.90
2023-05-13T11:05:00.997Z,25.90
2023-05-13T11:07:17.226Z,25.90
2023-05-13T11:09:31.505Z,26.00
2023-05-13T11:11:36.770Z,25.90
2023-05-13T11:13:39.759Z,25.90
2023-05-13T11:15:47.081Z,25.80
2023-05-13T11:17:54.214Z,25.80
2023-05-13T11:19:58.144Z,25.90
2023-05-13T11:22:11.858Z,26.00
2023-05-13T11:24:19.582Z,26.10
2023-05-13T11:26:23.028Z,25.80
2023-05-13T11:28:58.660Z,25.80
2023-05-13T11:31:16.783Z,25.70
2023-05-13T11:33:19.659Z,25.80
2023-05-13T11:35:23.378Z,25.90
2023-05-13T11:37:26.222Z,25.90
2023-05-13T11:39:29.153Z,25.90
2023-05-13T11:41:33.395Z,25.80
2023-05-13T11:43:36.578Z,25.80
2023-05-13T11:45:41.041Z,25.80
2023-05-13T11:47:45.348Z,25.80
2023-05-13T11:49:48.509Z,25.70
2023-05-13T11:51:51.323Z,25.80
2023-05-13T11:54:01.429Z,25.80
2023-05-13T11:56:11.179Z,25.70
2023-05-13T11:58:15.890Z,25.80
2023-05-13T12:00:19.287Z,25.70
2023-05-13T12:02:23.550Z,25.80
2023-05-13T12:04:31.159Z,25.80
2023-05-13T12:06:34.060Z,25.80
2023-05-13T12:08:45.393Z,25.80
2023-05-13T12:10:48.258Z,25.90
2023-05-13T12:12:51.701Z,26.10
2023-05-13T12:14:55.476Z,26.40
2023-05-13T12:16:58.597Z,26.40
2023-05-13T12:19:02.140Z,26.60
2023-05-13T12:21:17.232Z,26.90
2023-05-13T12:23:20.076Z,26.90
2023-05-13T12:25:40.001Z,26.80
2023-05-13T12:27:42.801Z,26.60
2023-05-13T12:29:45.708Z,26.60
2023-05-13T12:32:05.196Z,26.70
2023-05-13T12:34:08.227Z,26.90
2023-05-13T12:36:21.033Z,27.00
2023-05-13T12:38:25.257Z,27.00
2023-05-13T12:40:28.424Z,27.00
2023-05-13T12:42:31.368Z,27.00
2023-05-13T12:44:34.323Z,26.80
2023-05-13T12:46:39.748Z,26.40
2023-05-13T12:48:44.694Z,26.10
2023-05-13T12:50:48.043Z,26.20
2023-05-13T12:52:52.304Z,26.40
2023-05-13T12:54:55.109Z,26.60
2023-05-13T12:56:58.079Z,26.80
2023-05-13T12:59:00.937Z,26.90
2023-05-13T13:01:03.895Z,27.30
2023-05-13T13:03:08.071Z,27.70
2023-05-13T13:05:11.538Z,27.80
2023-05-13T13:07:14.818Z,27.70
2023-05-13T13:09:19.121Z,27.90
2023-05-13T13:11:21.956Z,28.00
2023-05-13T13:13:24.765Z,28.20
2023-05-13T13:15:27.529Z,28.30
2023-05-13T13:17:30.326Z,28.40
2023-05-13T13:19:33.420Z,28.20
2023-05-13T13:21:36.162Z,27.90
2023-05-13T13:23:38.939Z,27.70
2023-05-13T13:25:43.174Z,27.60
2023-05-13T13:27:46.112Z,27.90
2023-05-13T13:29:49.216Z,28.10
2023-05-13T13:31:52.767Z,28.30
2023-05-13T13:33:55.678Z,28.50
2023-05-13T13:35:58.512Z,28.40
2023-05-13T13:38:01.316Z,28.30
2023-05-13T13:40:04.538Z,28.10
2023-05-13T13:42:08.955Z,28.00
2023-05-13T13:44:11.767Z,28.00
2023-05-13T13:46:14.613Z,27.90
2023-05-13T13:48:17.375Z,27.80
2023-05-13T13:50:20.428Z,27.70
2023-05-13T13:52:24.579Z,27.80
2023-05-13T13:54:27.376Z,28.00
2023-05-13T13:56:30.600Z,28.10
2023-05-13T13:58:34.931Z,27.90
2023-05-13T14:00:37.745Z,27.90
2023-05-13T14:02:40.927Z,28.00
2023-05-13T14:04:43.886Z,28.10
2023-05-13T14:06:46.931Z,28.00
2023-05-13T14:08:51.797Z,28.10
2023-05-13T14:10:54.629Z,28.00
2023-05-13T14:12:57.501Z,28.10
2023-05-13T14:15:01.660Z,28.10
2023-05-13T14:17:04.749Z,28.20
2023-05-13T14:19:07.733Z,28.60
2023-05-13T14:21:10.730Z,29.30
2023-05-13T14:23:13.560Z,31.90
2023-05-13T14:25:16.559Z,34.80
2023-05-13T14:27:19.716Z,35.70
2023-05-13T14:29:22.540Z,37.60
2023-05-13T14:31:26.800Z,39.90
2023-05-13T14:33:29.733Z,42.20
2023-05-13T14:35:32.525Z,43.80
2023-05-13T14:37:35.325Z,45.40
2023-05-13T14:39:38.101Z,46.60
2023-05-13T14:41:42.360Z,47.50
2023-05-13T14:43:45.163Z,48.20
2023-05-13T14:45:47.970Z,48.40
2023-05-13T14:47:53.722Z,48.90
2023-05-13T14:49:56.824Z,49.10
2023-05-13T14:51:59.642Z,47.20
2023-05-13T14:54:02.520Z,47.30
2023-05-13T14:56:05.629Z,47.80
2023-05-13T14:58:09.156Z,48.70
2023-05-13T15:00:15.168Z,49.70
2023-05-13T15:02:18.179Z,50.30
2023-05-13T15:04:22.519Z,50.60
2023-05-13T15:06:25.428Z,50.70
2023-05-13T15:08:28.419Z,50.80
2023-05-13T15:10:31.179Z,51.10
2023-05-13T15:12:34.120Z,51.10
2023-05-13T15:14:36.932Z,51.00
2023-05-13T15:16:40.102Z,51.40
2023-05-13T15:18:42.988Z,51.90
2023-05-13T15:20:47.199Z,52.50
2023-05-13T15:22:50.043Z,53.10
2023-05-13T15:24:55.664Z,53.10
2023-05-13T15:26:58.416Z,53.10
2023-05-13T15:29:01.322Z,52.20
2023-05-13T15:31:04.143Z,52.30
2023-05-13T15:33:06.956Z,52.00
2023-05-13T15:35:10.569Z,52.10
2023-05-13T15:37:14.734Z,51.80
2023-05-13T15:39:17.659Z,51.40
2023-05-13T15:41:20.524Z,48.90
2023-05-13T15:43:23.336Z,45.20
2023-05-13T15:45:26.446Z,42.20
2023-05-13T15:47:29.617Z,39.90
2023-05-13T15:49:33.215Z,38.00
2023-05-13T15:51:36.354Z,36.50
2023-05-13T15:53:40.451Z,35.50
2023-05-13T15:55:43.250Z,34.80
2023-05-13T15:57:46.901Z,34.20
2023-05-13T15:59:50.551Z,34.20
2023-05-13T16:01:53.364Z,36.30
2023-05-13T16:03:56.155Z,38.10
2023-05-13T16:05:59.170Z,39.40
2023-05-13T16:08:01.863Z,41.80
2023-05-13T16:10:10.018Z,40.10
2023-05-13T16:12:12.812Z,37.70
2023-05-13T16:14:16.661Z,35.90
2023-05-13T16:16:21.501Z,34.30
2023-05-13T16:18:24.415Z,35.10
2023-05-13T16:20:27.519Z,36.60
2023-05-13T16:22:33.478Z,35.50
2023-05-13T16:24:36.281Z,35.30
2023-05-13T16:26:40.523Z,38.00
2023-05-13T16:28:43.510Z,41.10
2023-05-13T16:30:46.831Z,43.40
2023-05-13T16:32:53.255Z,44.90
2023-05-13T16:34:56.501Z,45.80
2023-05-13T16:36:59.437Z,46.10
2023-05-13T16:39:02.344Z,45.90
2023-05-13T16:41:05.710Z,45.10
2023-05-13T16:43:09.954Z,43.00
2023-05-13T16:45:13.191Z,41.40
2023-05-13T16:47:16.018Z,38.80
2023-05-13T16:49:18.899Z,36.30
2023-05-13T16:51:21.788Z,34.50
2023-05-13T16:53:26.445Z,34.40
2023-05-13T16:55:29.196Z,35.00
2023-05-13T16:57:32.138Z,35.00
2023-05-13T16:59:36.280Z,36.00
2023-05-13T17:01:39.220Z,35.20
2023-05-13T17:03:42.116Z,34.10
2023-05-13T17:05:45.221Z,33.90
2023-05-13T17:07:48.066Z,35.60
2023-05-13T17:09:51.133Z,36.40
2023-05-13T17:11:55.023Z,36.40
2023-05-13T17:13:57.846Z,35.00
2023-05-13T17:16:01.980Z,33.70
2023-05-13T17:18:05.094Z,33.20
2023-05-13T17:20:08.997Z,32.90
2023-05-13T17:22:11.775Z,33.10
2023-05-13T17:24:14.589Z,32.60
2023-05-13T17:26:17.383Z,32.10
2023-05-13T17:28:20.149Z,31.40
2023-05-13T17:30:23.955Z,31.20
2023-05-13T17:32:28.642Z,30.90
2023-05-13T17:34:31.453Z,30.50
2023-05-13T17:36:34.330Z,30.00
2023-05-13T17:38:37.752Z,29.60
2023-05-13T17:40:40.703Z,28.80
2023-05-13T17:42:43.887Z,28.20
2023-05-13T17:44:46.707Z,27.60
2023-05-13T17:46:49.472Z,27.20
2023-05-13T17:48:54.255Z,26.70
2023-05-13T17:50:57.130Z,26.40
2023-05-13T17:53:00.537Z,26.00
2023-05-13T17:55:03.341Z,25.90
2023-05-13T17:57:06.847Z,25.60
2023-05-13T17:59:09.726Z,25.50
2023-05-13T18:01:12.681Z,25.30
2023-05-13T18:03:15.550Z,25.10
2023-05-13T18:05:21.326Z,25.00
2023-05-13T18:07:24.421Z,24.80
2023-05-13T18:09:27.257Z,24.70
2023-05-13T18:11:30.044Z,24.50
2023-05-13T18:13:32.841Z,24.40
2023-05-13T18:15:35.624Z,24.30
2023-05-13T18:17:38.469Z,24.20
2023-05-13T18:19:41.317Z,24.10
2023-05-13T18:21:46.635Z,23.90
2023-05-13T18:23:49.482Z,23.80
2023-05-13T18:25:55.951Z,23.70
2023-05-13T18:27:59.006Z,23.60
2023-05-13T18:30:01.905Z,23.40
2023-05-13T18:32:05.623Z,23.30
2023-05-13T18:34:08.402Z,23.20
2023-05-13T18:36:11.192Z,23.00
2023-05-13T18:38:15.373Z,22.90
2023-05-13T18:40:18.154Z,22.90
2023-05-13T18:42:20.957Z,22.80
2023-05-13T18:44:23.891Z,22.70
2023-05-13T18:46:26.853Z,22.50
2023-05-13T18:48:29.872Z,22.40
2023-05-13T18:50:32.664Z,22.30
2023-05-13T18:52:35.412Z,22.20
2023-05-13T18:54:39.706Z,22.10
2023-05-13T18:56:42.580Z,22.00
2023-05-13T18:58:46.745Z,21.90
2023-05-13T19:00:49.681Z,21.80
2023-05-13T19:02:52.696Z,21.70
2023-05-13T19:04:55.792Z,21.50
2023-05-13T19:06:58.632Z,21.50
2023-05-13T19:09:01.439Z,21.40
2023-05-13T19:11:06.606Z,21.40
2023-05-13T19:13:09.544Z,21.30
2023-05-13T19:15:14.828Z,21.20
2023-05-13T19:17:17.752Z,21.20
2023-05-13T19:19:20.783Z,21.10
2023-05-13T19:21:24.212Z,21.00
2023-05-13T19:23:27.085Z,20.90
2023-05-13T19:25:29.952Z,20.80
2023-05-13T19:27:34.291Z,20.80
2023-05-13T19:29:38.012Z,20.70
2023-05-13T19:31:41.293Z,20.60
2023-05-13T19:33:46.078Z,20.50
2023-05-13T19:35:49.272Z,20.30
2023-05-13T19:37:52.716Z,20.20
2023-05-13T19:39:55.463Z,20.10
2023-05-13T19:41:58.230Z,20.10
2023-05-13T19:44:02.479Z,20.00
2023-05-13T19:46:05.669Z,20.00
2023-05-13T19:48:08.661Z,19.90
2023-05-13T19:50:11.666Z,19.90
2023-05-13T19:52:14.456Z,19.80
2023-05-13T19:54:17.472Z,19.80
2023-05-13T19:56:21.117Z,19.70
2023-05-13T19:58:23.890Z,19.60
2023-05-13T20:00:28.225Z,19.60
2023-05-13T20:02:31.083Z,19.50
2023-05-13T20:04:34.035Z,19.50
2023-05-13T20:06:37.539Z,19.40
2023-05-13T20:08:41.313Z,19.40
2023-05-13T20:10:44.371Z,19.30
2023-05-13T20:12:47.170Z,19.20
2023-05-13T20:14:52.000Z,19.10
2023-05-13T20:16:56.113Z,19.10
2023-05-13T20:18:58.946Z,19.00
2023-05-13T20:21:02.398Z,19.00
2023-05-13T20:23:05.481Z,18.90
2023-05-13T20:25:09.124Z,18.80
2023-05-13T20:27:11.972Z,18.60
2023-05-13T20:29:14.839Z,18.60
2023-05-13T20:31:18.028Z,18.40
2023-05-13T20:33:22.551Z,18.40
2023-05-13T20:35:25.499Z,18.20
2023-05-13T20:37:29.625Z,18.10
2023-05-13T20:39:32.693Z,18.10
2023-05-13T20:41:35.521Z,18.10
2023-05-13T20:43:38.501Z,18.10
2023-05-13T20:45:41.464Z,18.00
2023-05-13T20:47:44.531Z,18.00
2023-05-13T20:49:48.839Z,17.90
2023-05-13T20:51:52.005Z,17.80
2023-05-13T20:53:54.870Z,17.70
2023-05-13T20:55:57.704Z,17.70
2023-05-13T20:58:00.834Z,17.70
2023-05-13T21:00:04.089Z,17.60
2023-05-13T21:02:06.973Z,17.60
2023-05-13T21:04:10.633Z,17.60
2023-05-13T21:06:14.846Z,17.50
2023-05-13T21:08:17.880Z,17.40
2023-05-13T21:10:21.927Z,17.30
2023-05-13T21:12:25.095Z,17.30
2023-05-13T21:14:27.974Z,17.10
2023-05-13T21:16:31.076Z,16.90
2023-05-13T21:18:34.236Z,16.80
2023-05-13T21:20:37.437Z,16.90
2023-05-13T21:22:41.528Z,16.90
2023-05-13T21:24:44.867Z,16.90
2023-05-13T21:26:49.174Z,16.90
2023-05-13T21:28:52.556Z,16.90
2023-05-13T21:30:55.369Z,16.80
2023-05-13T21:32:58.382Z,16.70
2023-05-13T21:35:01.191Z,16.70
2023-05-13T21:37:04.016Z,16.70
2023-05-13T21:39:10.423Z,16.60
2023-05-13T21:41:13.278Z,16.50
2023-05-13T21:43:16.494Z,16.50
2023-05-13T21:45:20.572Z,16.50
2023-05-13T21:47:23.587Z,16.50
2023-05-13T21:49:26.667Z,16.40
2023-05-13T21:51:30.070Z,16.40
2023-05-13T21:53:33.905Z,16.10
2023-05-13T21:55:38.115Z,16.00
2023-05-13T21:57:40.921Z,16.00
2023-05-13T21:59:43.748Z,16.00
2023-05-13T22:01:46.718Z,16.00
2023-05-13T22:03:49.612Z,16.10
2023-05-13T22:05:52.411Z,16.10
2023-05-13T22:07:55.410Z,16.00
2023-05-13T22:09:58.223Z,16.00
2023-05-13T22:12:02.995Z,15.70
2023-05-13T22:14:05.971Z,15.80
2023-05-13T22:16:09.092Z,15.80
2023-05-13T22:18:11.997Z,15.60
2023-05-13T22:20:15.185Z,15.60
2023-05-13T22:22:18.049Z,15.60
2023-05-13T22:24:21.096Z,15.50
2023-05-13T22:26:23.988Z,15.60
2023-05-13T22:28:28.154Z,15.60
2023-05-13T22:30:31.034Z,15.60
2023-05-13T22:32:34.312Z,15.50
2023-05-13T22:34:37.168Z,15.30
2023-05-13T22:36:41.762Z,15.30
2023-05-13T22:38:45.921Z,15.30
2023-05-13T22:40:48.773Z,15.30
2023-05-13T22:42:51.664Z,15.10
2023-05-13T22:44:56.001Z,15.10
2023-05-13T22:46:58.785Z,15.20
2023-05-13T22:49:01.690Z,15.20
2023-05-13T22:51:04.925Z,15.10
2023-05-13T22:53:07.742Z,15.10
2023-05-13T22:55:11.647Z,15.20
2023-05-13T22:57:14.419Z,15.20
2023-05-13T22:59:17.357Z,15.20
2023-05-13T23:01:21.691Z,15.20
2023-05-13T23:03:24.454Z,15.10
2023-05-13T23:05:27.278Z,15.10
2023-05-13T23:07:30.070Z,15.00
2023-05-13T23:09:32.790Z,14.90
2023-05-13T23:11:37.446Z,14.90
2023-05-13T23:13:40.195Z,14.80
2023-05-13T23:15:42.956Z,14.90
2023-05-13T23:17:47.245Z,14.90
2023-05-13T23:19:50.073Z,14.80
2023-05-13T23:21:53.259Z,14.70
2023-05-13T23:23:57.323Z,14.70
2023-05-13T23:26:00.054Z,14.70
2023-05-13T23:28:02.894Z,14.70
2023-05-13T23:30:07.138Z,14.60
2023-05-13T23:32:10.034Z,14.60
2023-05-13T23:34:14.276Z,14.60
2023-05-13T23:36:17.048Z,14.60
2023-05-13T23:38:19.867Z,14.60
2023-05-13T23:40:22.843Z,14.60
2023-05-13T23:42:25.850Z,14.70
2023-05-13T23:44:28.656Z,14.60
2023-05-13T23:46:31.997Z,14.60
2023-05-13T23:48:34.808Z,14.60
2023-05-13T23:50:38.966Z,14.60
2023-05-13T23:52:41.897Z,14.60
2023-05-13T23:54:44.657Z,14.60
2023-05-13T23:56:47.372Z,14.60
2023-05-13T23:58:50.120Z,14.60
